createdAt,value
2023-06-02T00:01:21.865Z,18.60
2023-06-02T00:04:03.849Z,18.50
2023-06-02T00:06:52.856Z,18.50
2023-06-02T00:09:44.881Z,18.50
2023-06-02T00:12:24.939Z,18.50
2023-06-02T00:15:12.886Z,18.50
2023-06-02T00:17:52.984Z,18.50
2023-06-02T00:20:39.869Z,18.60
2023-06-02T00:23:26.864Z,18.60
2023-06-02T00:26:07.392Z,18.60
2023-06-02T00:28:54.874Z,18.60
2023-06-02T00:31:35.837Z,18.60
2023-06-02T00:34:22.881Z,18.60
2023-06-02T00:37:03.360Z,18.60
2023-06-02T00:39:49.882Z,18.60
2023-06-02T00:42:30.547Z,18.60
2023-06-02T00:45:16.865Z,18.60
2023-06-02T00:48:04.288Z,18.60
2023-06-02T00:50:43.856Z,18.60
2023-06-02T00:53:30.927Z,18.60
2023-06-02T00:56:10.869Z,18.60
2023-06-02T00:58:51.462Z,18.60
2023-06-02T01:01:37.878Z,18.60
2023-06-02T01:04:19.788Z,18.60
2023-06-02T01:07:07.920Z,18.50
2023-06-02T01:09:55.216Z,18.60
2023-06-02T01:12:34.901Z,18.50
2023-06-02T01:15:15.499Z,18.60
2023-06-02T01:18:02.884Z,18.50
2023-06-02T01:20:53.504Z,18.50
2023-06-02T01:23:44.878Z,18.50
2023-06-02T01:26:26.361Z,18.50
2023-06-02T01:29:12.876Z,18.40
2023-06-02T01:31:53.969Z,18.40
2023-06-02T01:34:55.892Z,18.50
2023-06-02T01:38:01.873Z,18.50
2023-06-02T01:40:49.888Z,18.50
2023-06-02T01:43:31.342Z,18.50
2023-06-02T01:46:19.918Z,18.50
2023-06-02T01:49:01.933Z,18.50
2023-06-02T01:51:48.882Z,18.50
2023-06-02T01:54:29.951Z,18.50
2023-06-02T01:57:17.870Z,18.50
2023-06-02T02:00:04.901Z,18.50
2023-06-02T02:02:54.973Z,18.50
2023-06-02T02:05:34.972Z,18.50
2023-06-02T02:08:23.886Z,18.50
2023-06-02T02:11:03.967Z,18.50
2023-06-02T02:13:50.904Z,18.50
2023-06-02T02:16:31.013Z,18.50
2023-06-02T02:19:19.893Z,18.50
2023-06-02T02:22:00.041Z,18.50
2023-06-02T02:24:46.899Z,18.50
2023-06-02T02:27:26.998Z,18.50
2023-06-02T02:30:14.889Z,18.50
2023-06-02T02:32:56.680Z,18.50
2023-06-02T02:35:43.874Z,18.50
2023-06-02T02:38:30.887Z,18.40
2023-06-02T02:41:18.881Z,18.40
2023-06-02T02:43:58.945Z,18.40
2023-06-02T02:46:45.892Z,18.40
2023-06-02T02:49:25.950Z,18.40
2023-06-02T02:52:12.900Z,18.40
2023-06-02T02:54:52.961Z,18.40
2023-06-02T02:57:39.908Z,18.40
2023-06-02T03:00:26.873Z,18.40
2023-06-02T03:03:14.012Z,18.40
2023-06-02T03:05:56.892Z,18.40
2023-06-02T03:08:43.998Z,18.30
2023-06-02T03:11:24.891Z,18.30
2023-06-02T03:14:12.011Z,18.30
2023-06-02T03:16:52.934Z,18.30
2023-06-02T03:19:46.881Z,18.30
2023-06-02T03:22:30.004Z,18.30
2023-06-02T03:25:16.899Z,18.30
2023-06-02T03:28:00.460Z,18.30
2023-06-02T03:30:46.890Z,18.30
2023-06-02T03:33:29.381Z,18.30
2023-06-02T03:36:16.902Z,18.30
2023-06-02T03:39:03.889Z,18.30
2023-06-02T03:41:51.873Z,18.30
2023-06-02T03:44:38.896Z,18.30
2023-06-02T03:47:19.031Z,18.30
2023-06-02T03:50:05.901Z,18.30
2023-06-02T03:52:46.956Z,18.20
2023-06-02T03:55:33.908Z,18.20
2023-06-02T03:58:20.886Z,18.20
2023-06-02T04:01:08.892Z,18.20
2023-06-02T04:03:50.007Z,18.20
2023-06-02T04:06:37.889Z,18.20
2023-06-02T04:09:20.268Z,18.20
2023-06-02T04:12:06.899Z,18.20
2023-06-02T04:14:46.954Z,18.20
2023-06-02T04:17:33.929Z,18.20
2023-06-02T04:20:21.907Z,18.20
2023-06-02T04:23:08.902Z,18.20
2023-06-02T04:25:48.954Z,18.20
2023-06-02T04:28:36.934Z,18.20
2023-06-02T04:31:27.718Z,18.20
2023-06-02T04:34:14.925Z,18.20
2023-06-02T04:36:57.054Z,18.20
2023-06-02T04:39:45.881Z,18.20
2023-06-02T04:42:26.961Z,18.20
2023-06-02T04:45:23.895Z,18.20
2023-06-02T04:48:10.906Z,18.20
2023-06-02T04:50:57.905Z,18.20
2023-06-02T04:53:44.907Z,18.20
2023-06-02T04:56:33.922Z,18.20
2023-06-02T04:59:18.042Z,18.20
2023-06-02T05:02:05.971Z,18.20
2023-06-02T05:04:46.188Z,18.20
2023-06-02T05:07:32.914Z,18.20
2023-06-02T05:10:15.071Z,18.20
2023-06-02T05:13:01.894Z,18.20
2023-06-02T05:15:42.997Z,18.20
2023-06-02T05:18:29.916Z,18.30
2023-06-02T05:21:10.153Z,18.30
2023-06-02T05:23:56.906Z,18.30
2023-06-02T05:26:36.971Z,18.30
2023-06-02T05:29:23.909Z,18.30
2023-06-02T05:32:11.891Z,18.30
2023-06-02T05:34:58.914Z,18.30
2023-06-02T05:37:38.976Z,18.30
2023-06-02T05:40:25.945Z,18.30
2023-06-02T05:43:12.909Z,18.40
2023-06-02T05:45:59.993Z,18.30
2023-06-02T05:48:39.957Z,18.30
2023-06-02T05:51:26.901Z,18.30
2023-06-02T05:54:07.962Z,18.40
2023-06-02T05:56:54.898Z,18.40
2023-06-02T05:59:36.100Z,18.40
2023-06-02T06:02:22.954Z,18.40
2023-06-02T06:05:09.910Z,18.40
2023-06-02T06:07:56.978Z,18.40
2023-06-02T06:10:36.918Z,18.40
2023-06-02T06:13:18.455Z,18.50
2023-06-02T06:16:06.158Z,18.50
2023-06-02T06:18:46.390Z,18.50
2023-06-02T06:21:32.963Z,18.50
2023-06-02T06:24:13.383Z,18.60
2023-06-02T06:26:59.910Z,18.60
2023-06-02T06:29:40.445Z,18.60
2023-06-02T06:32:26.946Z,18.70
2023-06-02T06:35:08.165Z,18.70
2023-06-02T06:37:54.917Z,18.70
2023-06-02T06:40:49.907Z,18.80
2023-06-02T06:43:31.395Z,18.70
2023-06-02T06:46:24.922Z,18.80
2023-06-02T06:49:06.406Z,18.80
2023-06-02T06:51:53.913Z,18.80
2023-06-02T06:54:34.398Z,18.80
2023-06-02T06:57:20.929Z,18.90
2023-06-02T07:00:08.037Z,18.90
2023-06-02T07:02:50.974Z,18.90
2023-06-02T07:05:31.781Z,18.90
2023-06-02T07:08:18.935Z,18.90
2023-06-02T07:10:59.401Z,18.90
2023-06-02T07:13:46.914Z,18.90
2023-06-02T07:16:27.381Z,18.90
2023-06-02T07:19:13.935Z,18.90
2023-06-02T07:22:01.214Z,18.90
2023-06-02T07:24:40.925Z,18.90
2023-06-02T07:27:27.983Z,18.90
2023-06-02T07:30:08.927Z,18.90
2023-06-02T07:32:49.505Z,18.90
2023-06-02T07:35:35.910Z,18.90
2023-06-02T07:38:22.917Z,19.00
2023-06-02T07:41:09.910Z,18.90
2023-06-02T07:43:50.407Z,18.90
2023-06-02T07:46:36.950Z,18.90
2023-06-02T07:49:17.429Z,18.90
2023-06-02T07:52:03.934Z,18.90
2023-06-02T07:54:44.521Z,18.90
2023-06-02T07:57:30.924Z,18.90
2023-06-02T08:00:19.583Z,19.00
2023-06-02T08:03:05.960Z,19.00
2023-06-02T08:05:46.867Z,19.00
2023-06-02T08:08:33.905Z,19.00
2023-06-02T08:11:21.385Z,19.10
2023-06-02T08:14:00.922Z,19.10
2023-06-02T08:19:39.917Z,19.10
2023-06-02T08:22:27.844Z,19.20
2023-06-02T08:25:10.917Z,19.20
2023-06-02T08:27:53.118Z,19.20
2023-06-02T08:30:39.921Z,19.30
2023-06-02T08:33:29.043Z,19.20
2023-06-02T08:36:10.090Z,19.30
2023-06-02T08:38:59.918Z,19.30
2023-06-02T08:41:44.982Z,19.30
2023-06-02T08:44:31.938Z,19.40
2023-06-02T08:47:14.966Z,19.40
2023-06-02T08:50:01.977Z,19.50
2023-06-02T08:52:44.957Z,19.50
2023-06-02T08:55:32.952Z,19.50
2023-06-02T08:58:21.920Z,19.50
2023-06-02T09:01:11.974Z,19.60
2023-06-02T09:03:55.972Z,19.60
2023-06-02T09:06:43.914Z,19.60
2023-06-02T09:09:30.934Z,19.70
2023-06-02T09:12:18.913Z,19.70
2023-06-02T09:15:16.987Z,19.80
2023-06-02T09:18:18.928Z,19.80
2023-06-02T09:21:08.947Z,19.80
2023-06-02T09:24:08.299Z,19.80
2023-06-02T09:26:55.960Z,19.90
2023-06-02T09:29:45.937Z,20.00
2023-06-02T09:32:34.052Z,20.00
2023-06-02T09:35:46.434Z,20.10
2023-06-02T09:38:25.939Z,20.20
2023-06-02T09:41:23.352Z,20.20
2023-06-02T09:44:04.942Z,20.30
2023-06-02T09:46:53.044Z,20.30
2023-06-02T09:49:39.938Z,20.30
2023-06-02T09:52:20.727Z,20.40
2023-06-02T09:55:06.953Z,20.40
2023-06-02T09:57:47.467Z,20.40
2023-06-02T10:00:33.938Z,20.50
2023-06-02T10:03:14.525Z,20.50
2023-06-02T10:06:14.969Z,20.50
2023-06-02T10:09:16.109Z,20.60
2023-06-02T10:12:24.942Z,20.60
2023-06-02T10:15:42.977Z,20.70
2023-06-02T10:18:41.928Z,20.70
2023-06-02T10:21:47.980Z,20.80
2023-06-02T10:24:43.001Z,20.90
2023-06-02T10:27:45.947Z,21.00
2023-06-02T10:30:28.083Z,20.90
2023-06-02T10:33:16.012Z,21.00
2023-06-02T10:36:08.961Z,21.00
2023-06-02T10:38:55.976Z,21.00
2023-06-02T10:42:20.942Z,21.10
2023-06-02T10:45:27.991Z,21.10
2023-06-02T10:48:08.027Z,21.20
2023-06-02T10:51:04.123Z,21.20
2023-06-02T10:54:09.173Z,21.20
2023-06-02T10:56:55.928Z,21.20
2023-06-02T10:59:40.998Z,21.20
2023-06-02T11:02:51.062Z,21.30
2023-06-02T11:05:42.971Z,21.30
2023-06-02T11:08:27.017Z,21.30
2023-06-02T11:11:14.993Z,21.40
2023-06-02T11:14:00.257Z,21.40
2023-06-02T11:16:47.025Z,21.50
2023-06-02T11:19:58.953Z,21.50
2023-06-02T11:22:41.015Z,21.50
2023-06-02T11:25:27.972Z,21.60
2023-06-02T11:28:08.010Z,21.60
2023-06-02T11:31:10.997Z,21.70
2023-06-02T11:33:56.063Z,21.70
2023-06-02T11:36:46.946Z,21.80
2023-06-02T11:39:34.046Z,21.80
2023-06-02T11:42:15.944Z,21.90
2023-06-02T11:45:02.966Z,21.90
2023-06-02T11:47:43.028Z,21.90
2023-06-02T11:50:30.004Z,22.00
2023-06-02T11:53:10.044Z,22.00
2023-06-02T11:55:59.088Z,22.10
2023-06-02T11:58:39.013Z,22.00
2023-06-02T12:01:27.942Z,22.10
2023-06-02T12:04:12.907Z,22.20
2023-06-02T12:07:00.970Z,22.20
2023-06-02T12:09:44.582Z,22.30
2023-06-02T12:12:31.042Z,22.30
2023-06-02T12:15:21.999Z,22.30
2023-06-02T12:18:10.981Z,22.30
2023-06-02T12:20:51.005Z,22.40
2023-06-02T12:23:52.015Z,22.40
2023-06-02T12:26:38.978Z,22.40
2023-06-02T12:29:27.119Z,22.40
2023-06-02T12:32:24.094Z,22.40
2023-06-02T12:35:04.935Z,22.40
2023-06-02T12:37:53.962Z,22.50
2023-06-02T12:40:47.991Z,22.50
2023-06-02T12:43:34.966Z,22.50
2023-06-02T12:46:22.996Z,22.50
2023-06-02T12:49:10.984Z,22.50
2023-06-02T12:51:51.030Z,22.50
2023-06-02T12:54:37.950Z,22.50
2023-06-02T12:57:25.978Z,22.60
2023-06-02T13:00:07.217Z,22.50
2023-06-02T13:02:55.066Z,22.50
2023-06-02T13:05:42.971Z,22.50
2023-06-02T13:08:24.554Z,22.50
2023-06-02T13:11:12.008Z,22.50
2023-06-02T13:13:58.970Z,22.50
2023-06-02T13:16:46.117Z,22.50
2023-06-02T13:19:25.965Z,22.40
2023-06-02T13:22:06.851Z,22.50
2023-06-02T13:24:54.104Z,22.40
2023-06-02T13:27:42.123Z,22.50
2023-06-02T13:30:30.980Z,22.40
2023-06-02T13:33:18.108Z,22.40
2023-06-02T13:36:08.002Z,22.40
2023-06-02T13:39:01.980Z,22.50
2023-06-02T13:41:55.987Z,22.40
2023-06-02T13:44:36.462Z,22.40
2023-06-02T13:47:22.988Z,22.50
2023-06-02T13:50:10.991Z,22.50
2023-06-02T13:52:51.017Z,22.50
2023-06-02T13:55:39.978Z,22.50
2023-06-02T13:58:20.035Z,22.50
2023-06-02T14:01:07.016Z,22.50
2023-06-02T14:03:47.383Z,22.50
2023-06-02T14:06:33.970Z,22.50
2023-06-02T14:09:21.988Z,22.40
2023-06-02T14:12:08.982Z,22.50
2023-06-02T14:14:55.982Z,22.50
2023-06-02T14:17:42.997Z,22.50
2023-06-02T14:20:29.987Z,22.40
2023-06-02T14:23:10.706Z,22.50
2023-06-02T14:25:56.973Z,22.50
2023-06-02T14:28:43.992Z,22.50
2023-06-02T14:31:31.093Z,22.50
2023-06-02T14:34:11.497Z,22.50
2023-06-02T14:36:57.980Z,22.50
2023-06-02T14:39:45.042Z,22.50
2023-06-02T14:42:24.981Z,22.50
2023-06-02T14:45:06.121Z,22.50
2023-06-02T14:47:54.000Z,22.50
2023-06-02T14:50:34.541Z,22.50
2023-06-02T14:53:20.996Z,22.50
2023-06-02T14:56:08.371Z,22.50
2023-06-02T14:58:53.655Z,22.40
2023-06-02T15:01:45.987Z,22.50
2023-06-02T15:04:32.972Z,22.50
2023-06-02T15:07:22.250Z,22.50
2023-06-02T15:10:01.982Z,22.50
2023-06-02T15:12:42.645Z,22.50
2023-06-02T15:15:28.985Z,22.50
2023-06-02T15:18:09.501Z,22.50
2023-06-02T15:20:55.995Z,22.50
2023-06-02T15:23:36.440Z,22.50
2023-06-02T15:26:22.993Z,22.50
2023-06-02T15:29:04.638Z,22.50
2023-06-02T15:31:51.004Z,22.50
2023-06-02T15:34:38.044Z,22.50
2023-06-02T15:37:17.982Z,22.50
2023-06-02T15:40:05.188Z,22.50
2023-06-02T15:42:51.990Z,22.40
2023-06-02T15:45:32.475Z,22.40
2023-06-02T15:48:18.999Z,22.40
2023-06-02T15:50:59.460Z,22.40
2023-06-02T15:53:46.002Z,22.40
2023-06-02T15:56:27.363Z,22.40
2023-06-02T15:59:14.006Z,22.30
2023-06-02T16:01:57.004Z,22.30
2023-06-02T16:04:44.002Z,22.30
2023-06-02T16:07:24.949Z,22.30
2023-06-02T16:10:11.983Z,22.30
2023-06-02T16:13:01.020Z,22.30
2023-06-02T16:15:47.989Z,22.30
2023-06-02T16:18:35.011Z,22.30
2023-06-02T16:21:22.028Z,22.30
2023-06-02T16:24:10.001Z,22.30
2023-06-02T16:26:50.051Z,22.30
2023-06-02T16:29:37.000Z,22.30
2023-06-02T16:32:24.077Z,22.30
2023-06-02T16:35:04.803Z,22.30
2023-06-02T16:37:52.013Z,22.30
2023-06-02T16:40:46.018Z,22.30
2023-06-02T16:43:33.386Z,22.30
2023-06-02T16:46:13.104Z,22.30
2023-06-02T16:49:00.062Z,22.30
2023-06-02T16:51:40.017Z,22.30
2023-06-02T16:54:20.678Z,22.30
2023-06-02T16:57:07.027Z,22.30
2023-06-02T16:59:47.523Z,22.30
2023-06-02T17:02:34.011Z,22.30
2023-06-02T17:05:22.884Z,22.30
2023-06-02T17:08:03.994Z,22.30
2023-06-02T17:10:51.017Z,22.30
2023-06-02T17:13:33.959Z,22.30
2023-06-02T17:16:21.065Z,22.30
2023-06-02T17:19:01.077Z,22.20
2023-06-02T17:21:48.042Z,22.20
2023-06-02T17:24:28.109Z,22.20
2023-06-02T17:27:19.010Z,22.20
2023-06-02T17:29:59.096Z,22.20
2023-06-02T17:32:46.160Z,22.20
2023-06-02T17:35:26.606Z,22.20
2023-06-02T17:38:13.016Z,22.20
2023-06-02T17:40:53.056Z,22.20
2023-06-02T17:43:40.042Z,22.20
2023-06-02T17:46:21.209Z,22.30
2023-06-02T17:49:08.021Z,22.30
2023-06-02T17:51:48.065Z,22.20
2023-06-02T17:54:35.238Z,22.20
2023-06-02T17:57:22.110Z,22.20
2023-06-02T18:00:02.606Z,22.20
2023-06-02T18:02:49.143Z,22.20
2023-06-02T18:05:29.755Z,22.20
2023-06-02T18:08:16.234Z,22.20
2023-06-02T18:11:03.159Z,22.20
2023-06-02T18:13:43.792Z,22.20
2023-06-02T18:16:30.088Z,22.20
2023-06-02T18:19:12.173Z,22.20
2023-06-02T18:21:59.072Z,22.20
2023-06-02T18:24:46.005Z,22.20
2023-06-02T18:27:33.051Z,22.20
2023-06-02T18:30:14.112Z,22.20
2023-06-02T18:33:01.087Z,22.20
2023-06-02T18:35:41.875Z,22.20
2023-06-02T18:38:29.048Z,22.20
2023-06-02T18:41:16.034Z,22.20
2023-06-02T18:43:56.985Z,22.20
2023-06-02T18:46:44.216Z,22.20
2023-06-02T18:49:31.026Z,22.20
2023-06-02T18:52:18.026Z,22.10
2023-06-02T18:55:05.185Z,22.10
2023-06-02T18:57:45.027Z,22.10
2023-06-02T19:00:25.534Z,22.10
2023-06-02T19:03:13.152Z,22.10
2023-06-02T19:06:03.363Z,22.10
2023-06-02T19:08:44.450Z,22.10
2023-06-02T19:11:32.224Z,22.00
2023-06-02T19:14:14.119Z,22.00
2023-06-02T19:17:09.710Z,22.00
2023-06-02T19:20:16.246Z,22.00
2023-06-02T19:23:04.610Z,22.00
2023-06-02T19:25:46.732Z,21.90
2023-06-02T19:28:34.059Z,21.90
2023-06-02T19:31:18.644Z,21.90
2023-06-02T19:34:05.317Z,21.80
2023-06-02T19:36:52.089Z,21.80
2023-06-02T19:39:33.873Z,21.80
2023-06-02T19:42:21.028Z,21.80
2023-06-02T19:45:01.578Z,21.70
2023-06-02T19:47:48.065Z,21.70
2023-06-02T19:50:35.156Z,21.60
2023-06-02T19:53:15.051Z,21.60
2023-06-02T19:55:55.944Z,21.50
2023-06-02T19:58:43.043Z,21.50
2023-06-02T20:05:02.043Z,21.40
2023-06-02T20:07:43.461Z,21.40
2023-06-02T20:10:30.040Z,21.30
2023-06-02T20:13:17.050Z,21.30
2023-06-02T20:16:04.031Z,21.20
2023-06-02T20:18:44.554Z,21.20
2023-06-02T20:21:34.040Z,21.20
2023-06-02T20:24:21.028Z,21.10
2023-06-02T20:27:01.141Z,21.10
2023-06-02T20:29:48.055Z,21.10
2023-06-02T20:32:29.350Z,21.00
2023-06-02T20:35:16.051Z,21.00
2023-06-02T20:37:56.115Z,21.00
2023-06-02T20:40:43.047Z,20.90
2023-06-02T20:43:23.101Z,20.90
2023-06-02T20:46:10.056Z,20.90
2023-06-02T20:48:50.145Z,20.80
2023-06-02T20:51:37.057Z,20.80
2023-06-02T20:54:17.151Z,20.80
2023-06-02T20:57:04.083Z,20.80
2023-06-02T20:59:44.089Z,20.70
2023-06-02T21:02:31.078Z,20.70
2023-06-02T21:05:18.182Z,20.70
2023-06-02T21:07:58.069Z,20.70
2023-06-02T21:10:38.581Z,20.60
2023-06-02T21:13:25.049Z,20.60
2023-06-02T21:16:13.066Z,20.60
2023-06-02T21:19:02.042Z,20.50
2023-06-02T21:21:42.538Z,20.50
2023-06-02T21:24:29.077Z,20.50
2023-06-02T21:27:16.521Z,20.50
2023-06-02T21:29:56.062Z,20.40
2023-06-02T21:32:43.251Z,20.40
2023-06-02T21:35:24.053Z,20.40
2023-06-02T21:38:11.480Z,20.40
2023-06-02T21:40:51.038Z,20.40
2023-06-02T21:43:38.112Z,20.30
2023-06-02T21:46:20.106Z,20.30
2023-06-02T21:49:07.188Z,20.30
2023-06-02T21:51:47.066Z,20.30
2023-06-02T21:54:39.826Z,20.20
2023-06-02T21:57:19.069Z,20.20
2023-06-02T22:00:06.202Z,20.20
2023-06-02T22:02:47.133Z,20.20
2023-06-02T22:05:34.124Z,20.10
2023-06-02T22:08:16.047Z,20.10
2023-06-02T22:11:00.917Z,20.10
2023-06-02T22:13:48.048Z,20.10
2023-06-02T22:16:28.607Z,20.10
2023-06-02T22:19:15.076Z,20.00
2023-06-02T22:22:02.117Z,20.00
2023-06-02T22:24:44.079Z,19.90
2023-06-02T22:27:24.529Z,19.90
2023-06-02T22:30:11.101Z,19.90
2023-06-02T22:32:58.251Z,19.90
2023-06-02T22:35:38.092Z,19.90
2023-06-02T22:38:25.068Z,19.90
2023-06-02T22:41:05.316Z,19.80
2023-06-02T22:43:52.069Z,19.80
2023-06-02T22:46:32.174Z,19.80
2023-06-02T22:49:19.073Z,19.80
2023-06-02T22:52:06.063Z,19.70
2023-06-02T22:54:46.686Z,19.70
2023-06-02T22:57:33.069Z,19.60
2023-06-02T23:00:14.402Z,19.60
2023-06-02T23:03:01.116Z,19.60
2023-06-02T23:05:41.644Z,19.60
2023-06-02T23:08:29.084Z,19.60
2023-06-02T23:11:16.168Z,19.50
2023-06-02T23:13:56.087Z,19.50
2023-06-02T23:16:43.207Z,19.50
2023-06-02T23:19:23.090Z,19.50
2023-06-02T23:22:10.079Z,19.40
2023-06-02T23:24:59.119Z,19.40
2023-06-02T23:27:48.092Z,19.40
2023-06-02T23:30:35.073Z,19.40
2023-06-02T23:33:22.095Z,19.40
2023-06-02T23:36:09.092Z,19.30
2023-06-02T23:38:56.051Z,19.30
2023-06-02T23:41:43.078Z,19.30
2023-06-02T23:44:30.071Z,19.30
2023-06-02T23:47:10.219Z,19.30
2023-06-02T23:49:57.063Z,19.30
2023-06-02T23:52:37.347Z,19.20
2023-06-02T23:55:24.094Z,19.20
2023-06-02T23:58:04.117Z,19.10
